Overview Statistics Trail Chart Weather Telemetry Raw packets
 

This is the latest recevied weather packets stored in our database for station/object KG4GJX. If no packets are shown the sender has not sent any weather packets the latest 10 day(s).

<< 34 35 36 37 38 39 >>
Time Temp. Humidity Pressure Rain* Wind** Luminosity Snow
1787892924 20.56° C 100% 1015.5 hPa 0 mm - - -
1787892261 20.56° C 100% 1015.9 hPa 0 mm - - -
1787886319 21.11° C 100% 1015.5 hPa 0 mm - - -
1787884996 21.11° C 100% 1015.9 hPa 0 mm - - -
1787884334 21.11° C 100% 1015.5 hPa 0 mm - - -
1787882352 21.67° C 100% 1015.5 hPa 0 mm - - -
1787881689 21.67° C 100% 1015.9 hPa 0 mm - - -
1787881027 21.67° C 100% 1015.5 hPa 0 mm - - -
1787879705 21.67° C 100% 1015.2 hPa 0 mm - - -
1787879043 21.67° C 100% 1014.9 hPa 0.25 mm - - -
1787878380 21.67° C 100% 1014.9 hPa 2.03 mm - - -
1787877718 22.22° C 100% 1014.9 hPa 2.03 mm - - -
1787877055 22.22° C 100% 1015.2 hPa 2.29 mm - - -
1787876393 22.22° C 100% 1015.2 hPa 3.81 mm - - -
1787875730 22.78° C 100% 1015.2 hPa 3.81 mm - - -
1787875068 23.89° C 96% 1015.2 hPa 2.03 mm - - -
1787874406 24.44° C 92% 1015.2 hPa 1.78 mm - - -
1787873743 25.56° C 90% 1014.9 hPa 1.78 mm - - -
1787873081 27.22° C 83% 1014.9 hPa 0 mm - - -
1787872419 28.89° C 73% 1014.9 hPa 0 mm - - -
1787871756 30° C 68% 1014.5 hPa 0 mm - - -
1787871094 31.11° C 62% 1014.5 hPa 0 mm - - -
1787870431 33.33° C 54% 1014.5 hPa 0 mm - - -
1787869769 33.89° C 54% 1014.5 hPa 0 mm - - -
1787869107 33.33° C 51% 1014.5 hPa 0 mm - - -

* Rain latest hour (hover to see other rain measurements)
** Current wind speed in m/s (hover to see current wind gust speed)